Latest Weather Observations for Davis*

IDT60801

Issued at 7:01 pm EST Friday 6 May 2016 (issued every 30 minutes, with the page automatically refreshed every 10 minutes)

About weather observations | Map of weather stations | Latest weather observations for ANT | Other Formats
Station Details ID: 300000 Name: DAVIS Lat: -68.57 Lon: 77.97 Height: 18.0 m
Data from the previous 72 hours. | See also: Recent months at Davis*
Date/Time
EST
Temp
°C
App
Temp
°C
Dew
Point
Rel
Hum
%
Delta-T
°C
Wind Press
QNH
hPa
Press
MSL
hPa
Rain
since 9 am
mm
Dir
 
Spd
km/h
Gust
km/h
Spd
kts
Gust
kts
06/07:00pm -15.0 -20.0 -21.2 59 - ENE 7 9 4 5 990.9 - -
06/06:30pm -15.6 -21.3 -21.2 62 - ENE 11 13 6 7 991.4 - -
06/06:00pm -15.5 -21.6 -21.1 62 - ENE 13 15 7 8 991.8 - -
06/05:30pm -16.0 -22.8 -21.0 65 - E 17 20 9 11 992.2 - -
06/05:00pm -16.1 -23.3 -21.0 66 - E 19 20 10 11 992.6 - -
06/04:30pm -16.2 -23.4 -21.4 64 - E 19 20 10 11 993.0 - -
06/04:00pm -16.6 -23.5 -21.6 65 - E 17 17 9 9 993.4 993.8 -
06/03:30pm -15.9 -21.6 -20.9 65 - E 11 13 6 7 993.9 - -
06/03:00pm -16.4 -23.2 -20.4 71 - E 17 17 9 9 994.0 - -
06/02:30pm -16.3 -23.1 -19.5 76 - ENE 17 19 9 10 994.6 - -
06/02:00pm -16.8 -23.6 -19.6 79 - ENE 17 19 9 10 994.9 - -
06/01:30pm -16.3 -23.5 -19.4 77 - ENE 19 20 10 11 995.0 - -
06/01:00pm -17.5 -24.7 -20.0 81 - ENE 19 20 10 11 995.3 995.7 -
06/12:30pm -16.9 -24.7 -20.3 75 - ENE 22 24 12 13 995.7 - -
06/12:00pm -16.7 -24.5 -20.9 70 - ENE 22 24 12 13 996.3 - -
06/11:30am -17.1 -24.4 -21.7 67 - ENE 19 20 10 11 996.7 - -
06/11:00am -18.8 -24.5 -22.0 76 - NNE 11 13 6 7 997.0 - -
06/10:30am -18.1 -24.2 -22.5 68 - NE 13 17 7 9 997.3 - -
06/10:00am -16.4 -22.9 -21.6 64 - E 15 17 8 9 997.5 997.9 -
06/09:30am -16.0 -22.8 -21.0 65 - ESE 17 17 9 9 997.8 - -
06/09:00am -16.7 -22.8 -21.0 69 - E 13 13 7 7 997.9 - -
06/08:30am -16.6 -22.7 -20.6 71 - SE 13 15 7 8 999.0 - -
06/08:00am -16.3 -22.0 -20.5 70 - SE 11 11 6 6 999.2 - -
06/07:30am -17.1 -22.4 -20.5 75 - SE 9 11 5 6 999.6 - -
06/07:00am -16.7 -22.8 -20.1 75 - ESE 13 15 7 8 1000.0 1000.3 -
06/06:30am -16.8 -21.2 -20.6 72 - S 4 7 2 4 1000.5 - -
06/06:00am -15.6 -20.5 -19.5 72 - SE 7 11 4 6 1000.9 - -
06/05:30am -14.3 -20.7 -18.9 68 - S 15 19 8 10 1001.1 - -
06/05:00am -14.4 -20.4 -19.0 68 - SSE 13 17 7 9 1001.6 - -
06/04:30am -14.6 -21.0 -18.5 72 - S 15 19 8 10 1002.0 - -
06/04:00am -12.5 -18.5 -17.5 66 - S 13 20 7 11 1002.5 1002.8 -
06/03:30am -12.5 -18.8 -17.0 69 - SSE 15 19 8 10 1002.8 - -
06/03:00am -12.6 -19.3 -17.3 68 - SE 17 22 9 12 1003.3 - -
06/02:30am -12.6 -19.9 -17.3 68 - SE 20 26 11 14 1003.7 - -
06/02:00am -12.1 -19.2 -16.9 67 - SE 19 26 10 14 1004.1 - -
06/01:30am -12.3 -19.4 -17.1 67 - SE 19 22 10 12 1004.6 - -
06/01:00am -11.9 -18.2 -16.8 67 - ESE 15 20 8 11 1005.0 1005.3 -
06/12:30am -12.4 -18.7 -16.7 70 - ESE 15 17 8 9 1005.3 - -
06/12:00am -13.3 -19.2 -16.9 74 - ESE 13 15 7 8 1005.7 - -
 
Date/Time
EST
Temp
°C
App
Temp
°C
Dew
Point
Rel
Hum
%
Delta-T
°C
Wind Press
QNH
hPa
Press
MSL
hPa
Rain
since 9 am
mm
Dir
 
Spd
km/h
Gust
km/h
Spd
kts
Gust
kts
05/11:30pm -14.1 -19.7 -16.9 79 - SE 11 13 6 7 1006.0 - -
05/11:00pm -15.0 -18.9 -17.5 81 - NNE 2 7 1 4 1006.2 - -
05/10:30pm -15.1 -20.3 -17.6 81 - SE 9 9 5 5 1006.3 - -
05/10:00pm -15.7 -20.5 -17.9 83 - SSE 7 9 4 5 1006.4 1006.7 -
05/09:30pm -16.5 -21.4 -18.8 82 - ENE 7 9 4 5 1006.5 - -
05/09:00pm -16.0 -21.3 -18.8 79 - SE 9 11 5 6 1006.4 - -
05/08:30pm -15.4 -20.0 -17.9 81 - S 6 9 3 5 1006.4 - -
05/08:00pm -14.6 -20.2 -17.3 80 - SSE 11 13 6 7 1006.6 - -
05/07:30pm -14.5 -19.1 -16.7 83 - S 6 9 3 5 1006.8 - -
05/07:00pm -14.5 -20.4 -16.6 84 - SE 13 17 7 9 1006.7 1007.0 -
05/06:30pm -15.5 -20.1 -17.9 82 - SSE 6 11 3 6 1007.1 - -
05/06:00pm -15.2 -20.0 -17.7 81 - SSE 7 11 4 6 1007.6 - -
05/05:30pm -15.3 -20.9 -17.8 81 - S 11 15 6 8 1007.7 - -
05/05:00pm -16.5 -22.5 -19.1 80 - SSW 13 17 7 9 1007.4 - -
05/04:30pm -16.1 -21.7 -18.9 79 - SSW 11 15 6 8 1007.4 - -
05/04:00pm -16.9 -23.0 -20.3 75 - SSW 13 15 7 8 1007.4 1007.7 -
05/03:30pm -16.0 -21.6 -19.2 76 - S 11 15 6 8 1007.9 - -
05/03:00pm -17.3 -23.7 -20.0 79 - S 15 19 8 10 1007.5 - -
05/02:30pm -19.0 -25.1 -21.6 80 - S 13 15 7 8 1007.5 - -
05/02:00pm -19.0 -25.1 -21.7 79 - SSW 13 13 7 7 1007.5 - -
05/01:30pm -19.2 -25.3 -21.8 80 - S 13 17 7 9 1007.4 - -
05/01:00pm -19.4 -24.4 -22.0 80 - SSW 7 9 4 5 1007.6 1007.9 -
05/12:30pm -20.4 -26.6 -23.1 79 - SSW 13 15 7 8 1007.8 - -
05/12:00pm -20.9 -26.7 -24.0 76 - SSW 11 13 6 7 1007.4 - -
05/11:30am -21.0 -26.8 -23.9 77 - SSW 11 13 6 7 1007.3 - -
05/11:00am -21.6 -27.0 -24.1 80 - S 9 13 5 7 1007.5 - -
05/10:30am -21.8 -27.6 -24.7 77 - SSW 11 15 6 8 1007.5 - -
05/10:00am -22.1 -27.5 -24.6 80 - S 9 11 5 6 1007.4 1007.7 -
05/09:30am -22.5 -27.9 -25.0 80 - SSE 9 11 5 6 1007.2 - -
05/09:00am -23.6 -29.1 -26.3 78 - S 9 11 5 6 1006.5 - -
05/08:30am -24.4 -30.3 -27.0 79 - SSW 11 13 6 7 1007.0 - -
05/08:00am -25.3 -30.8 -28.0 78 - SSW 9 13 5 7 1006.9 - -
05/07:30am -25.8 -31.3 -28.6 77 - SSW 9 11 5 6 1006.8 - -
05/07:00am -26.9 -32.4 -29.8 76 - S 9 13 5 7 1006.7 1007.0 -
05/06:30am -27.4 -33.3 -30.3 76 - S 11 13 6 7 1006.4 - -
05/06:00am -29.5 -35.1 -32.6 74 - SSW 9 11 5 6 1006.2 - -
05/05:30am -27.9 -33.5 -30.8 76 - S 9 13 5 7 1006.2 - -
05/05:00am -28.0 -33.6 -31.0 75 - SSE 9 15 5 8 1006.0 - -
05/04:30am -28.3 -33.5 -31.2 76 - S 7 11 4 6 1005.9 - -
05/04:00am -28.3 -33.3 -31.3 75 - S 6 11 3 6 1005.7 1006.0 -
05/03:30am -27.8 -33.7 -30.7 76 - S 11 13 6 7 1005.5 - -
05/03:00am -28.8 -34.7 -31.7 76 - SSW 11 13 6 7 1005.3 - -
05/02:30am -27.5 -33.4 -30.3 77 - S 11 13 6 7 1005.3 - -
05/02:00am -27.7 -33.3 -30.6 76 - S 9 11 5 6 1005.3 - -
05/01:30am -27.5 -33.4 -30.4 76 - S 11 15 6 8 1005.2 - -
05/01:00am -27.8 -33.7 -30.7 76 - S 11 13 6 7 1005.0 1005.3 -
05/12:30am -27.9 -33.1 -30.8 76 - S 7 9 4 5 1004.9 - -
05/12:00am -27.4 -32.6 -30.3 76 - S 7 7 4 4 1004.5 - -
 
Date/Time
EST
Temp
°C
App
Temp
°C
Dew
Point
Rel
Hum
%
Delta-T
°C
Wind Press
QNH
hPa
Press
MSL
hPa
Rain
since 9 am
mm
Dir
 
Spd
km/h
Gust
km/h
Spd
kts
Gust
kts
04/11:30pm -27.4 -32.4 -30.3 76 - SSE 6 9 3 5 1004.3 - -
04/11:00pm -26.9 -32.4 -29.6 78 - SSE 9 11 5 6 1004.0 - -
04/10:30pm -26.8 -32.3 -29.5 78 - SSE 9 11 5 6 1003.7 - -
04/10:00pm -26.7 -32.2 -29.5 77 - S 9 9 5 5 1003.6 1003.9 -
04/09:30pm -26.4 -31.5 -29.1 78 - S 7 9 4 5 1003.3 - -
04/09:00pm -26.3 -32.2 -29.0 78 - SSE 11 11 6 6 1002.9 - -
04/08:30pm -26.8 -32.7 -29.6 77 - SE 11 11 6 6 1002.5 - -
04/08:00pm -26.2 -32.1 -28.9 78 - SE 11 13 6 7 1002.3 - -
04/07:30pm -25.4 -31.3 -28.0 79 - SE 11 13 6 7 1002.1 - -
04/07:00pm -26.3 -32.6 -29.0 78 - SE 13 15 7 8 1002.1 1002.4 -
04/06:30pm -27.1 -33.0 -30.0 76 - SE 11 13 6 7 1001.7 - -
04/06:00pm -25.8 -31.3 -28.3 79 - SE 9 11 5 6 1001.3 - -
04/05:30pm -25.4 -29.6 -28.1 78 - SSE 2 6 1 3 1000.9 - -
04/05:00pm -25.7 -29.5 -28.2 80 - CALM 0 0 0 0 1000.4 - -
04/04:30pm -25.6 -29.8 -28.1 80 - SSE 2 6 1 3 999.7 - -
04/04:00pm -26.6 -31.2 -29.4 77 - SSE 4 6 2 3 999.4 999.7 -
04/03:30pm -26.3 -31.4 -29.2 76 - SSE 7 7 4 4 999.0 - -
04/03:00pm -25.8 -30.9 -28.3 79 - SSE 7 9 4 5 998.7 - -
04/02:30pm -25.9 -31.0 -28.6 78 - SSE 7 9 4 5 998.4 - -
04/02:00pm -25.9 -30.8 -28.6 78 - SSE 6 7 3 4 998.2 - -
04/01:30pm -25.4 -30.0 -28.1 78 - S 4 6 2 3 997.6 - -
04/01:00pm -25.1 -30.2 -27.7 79 - S 7 9 4 5 997.4 997.8 -
04/12:30pm -25.5 -30.6 -28.0 80 - SSE 7 9 4 5 996.8 - -
04/12:00pm -26.5 -32.0 -29.2 78 - SE 9 11 5 6 996.7 - -
04/11:30am -26.8 -32.3 -29.5 78 - ESE 9 11 5 6 997.0 - -
04/11:00am -27.6 -32.6 -30.4 77 - SSE 6 7 3 4 996.1 - -
04/10:30am -27.1 -30.9 -29.9 77 - CALM 0 7 0 4 995.8 - -
04/10:00am -27.3 -31.1 -30.1 77 - CALM 0 0 0 0 995.3 995.7 -
04/09:30am -28.0 -31.8 -30.9 76 - CALM 0 0 0 0 994.8 - -
04/09:00am -27.1 -32.1 -30.0 76 - SE 6 7 3 4 994.0 - -
04/08:30am -27.3 -31.1 -30.1 77 - CALM 0 7 0 4 994.0 - -
04/08:00am -27.6 -32.6 -30.5 76 - SE 6 7 3 4 993.7 - -
04/07:30am -27.3 -31.9 -30.1 77 - SE 4 7 2 4 993.3 - -
04/07:00am -27.1 -32.1 -29.9 77 - SE 6 7 3 4 992.7 993.1 -
04/06:30am -27.7 -31.5 -30.5 77 - CALM 0 0 0 0 992.4 - -
04/06:00am -28.6 -32.8 -31.6 75 - E 2 7 1 4 991.8 - -
04/05:30am -27.6 -33.5 -30.4 77 - SE 11 13 6 7 991.2 - -
04/05:00am -27.9 -31.7 -30.8 76 - CALM 0 0 0 0 990.9 - -
04/04:30am -28.2 -32.4 -31.2 75 - ESE 2 6 1 3 990.4 - -
04/04:00am -27.5 -32.1 -30.3 77 - E 4 6 2 3 989.9 990.3 -
04/03:30am -27.5 -32.1 -30.3 77 - E 4 6 2 3 989.5 - -
04/03:00am -27.1 -32.1 -29.7 79 - E 6 7 3 4 988.9 - -
04/02:30am -27.4 -32.0 -30.4 76 - E 4 6 2 3 988.8 - -
04/02:00am -26.9 -31.1 -29.6 78 - E 2 7 1 4 988.3 - -
04/01:30am -25.7 -29.5 -28.2 80 - CALM 0 0 0 0 988.0 - -
04/01:00am -26.0 -29.8 -28.7 78 - CALM 0 0 0 0 987.9 988.3 -
04/12:30am -25.8 -30.4 -28.3 79 - E 4 7 2 4 987.4 - -
04/12:00am -25.9 -30.8 -28.6 78 - ENE 6 7 3 4 987.2 - -
 
Date/Time
EST
Temp
°C
App
Temp
°C
Dew
Point
Rel
Hum
%
Delta-T
°C
Wind Press
QNH
hPa
Press
MSL
hPa
Rain
since 9 am
mm
Dir
 
Spd
km/h
Gust
km/h
Spd
kts
Gust
kts
03/11:30pm -25.7 -30.6 -28.4 78 - ENE 6 7 3 4 986.9 - -
03/11:00pm -26.6 -31.6 -29.3 78 - ENE 6 9 3 5 986.7 - -
03/10:30pm -26.1 -31.1 -28.9 77 - NNE 6 7 3 4 986.5 - -

Other Formats:

Comma delimited format used in spreadsheet applications
http://www.bom.gov.au/fwo/IDT60803/IDT60803.89571.axf

JavaScript Object Notation format (JSON) in row-major order
http://www.bom.gov.au/fwo/IDT60803/IDT60803.89571.json